Time;durP1;ratioP1;P1;durP2;ratioP2;P2;SDS_P1;SDS_P2;PMS_P1;PMS_P2;Temp;Humidity;BMP_temperature;BMP_pressure;BME280_temperature;BME280_humidity;BME280_pressure;Samples;Min_cycle;Max_cycle;Signal;HPM_P1;HPM_P2
2022/07/06 00:01:30;;;;;;;1.90;1.05;;;19.00;55.80;;;18.31;58.98;96425.09;4941279;28;20129;-64
2022/07/06 00:03:56;;;;;;;3.65;1.30;;;19.00;55.00;;;18.25;59.68;96418.03;4950997;28;20045;-64
2022/07/06 00:06:23;;;;;;;1.83;1.10;;;18.90;55.60;;;18.22;60.40;96423.81;4963457;28;20066;-64
2022/07/06 00:08:48;;;;;;;4.95;1.27;;;18.90;55.90;;;18.17;59.67;96421.03;4951517;28;20396;-64
2022/07/06 00:11:14;;;;;;;2.97;1.15;;;18.80;55.40;;;18.13;59.81;96421.72;4951761;28;20164;-64
2022/07/06 00:13:40;;;;;;;2.63;1.42;;;18.80;55.60;;;18.07;60.24;96428.75;4962775;28;20130;-64
2022/07/06 00:16:06;;;;;;;2.75;1.13;;;18.70;56.10;;;18.04;60.20;96434.53;4943620;28;20119;-64
2022/07/06 00:18:32;;;;;;;4.63;1.40;;;18.70;55.60;;;17.97;59.48;96434.66;4952047;28;20035;-64
2022/07/06 00:20:57;;;;;;;3.53;1.02;;;18.60;56.00;;;17.91;60.49;96434.75;4948429;28;20043;-64
2022/07/06 00:23:23;;;;;;;2.10;1.10;;;18.50;56.30;;;17.79;60.32;96431.22;4969515;28;20030;-64
2022/07/06 00:25:49;;;;;;;4.13;1.40;;;18.30;56.90;;;17.67;61.10;96432.00;4953655;28;20415;-64
2022/07/06 00:28:15;;;;;;;3.58;1.20;;;18.20;57.90;;;17.62;61.50;96442.47;4950816;28;20105;-63
2022/07/06 00:30:40;;;;;;;2.30;1.20;;;18.20;58.50;;;17.60;61.79;96441.06;4933124;28;20498;-64
2022/07/06 00:33:06;;;;;;;2.05;1.33;;;18.30;58.70;;;17.59;62.73;96437.59;4952431;28;20043;-64
2022/07/06 00:35:32;;;;;;;2.45;1.17;;;18.30;59.00;;;17.57;63.12;96433.53;4937582;28;20106;-64
2022/07/06 00:37:58;;;;;;;3.17;1.08;;;18.30;59.30;;;17.55;63.33;96435.59;4950946;28;20034;-64
2022/07/06 00:40:23;;;;;;;2.55;1.20;;;18.40;59.40;;;17.53;64.16;96433.19;4952302;28;20106;-64
2022/07/06 00:42:49;;;;;;;1.55;1.10;;;18.40;59.50;;;17.54;63.84;96437.47;4954437;28;20047;-64
2022/07/06 00:45:16;;;;;;;3.08;1.33;;;18.30;59.20;;;17.52;63.54;96434.22;4966575;28;20435;-64
2022/07/06 00:47:42;;;;;;;3.30;1.20;;;18.20;59.70;;;17.51;64.71;96437.91;4969342;28;20388;-64
2022/07/06 00:50:22;;;;;;;3.20;1.20;;;18.20;59.90;;;17.49;63.90;96432.00;4952311;28;20038;-65
2022/07/06 00:52:53;;;;;;;2.28;1.50;;;18.20;59.50;;;17.44;65.74;96431.88;4951634;28;20042;-64
2022/07/06 00:55:21;;;;;;;2.88;1.20;;;18.20;60.10;;;17.43;65.07;96430.25;4953060;28;20114;-65
2022/07/06 00:57:47;;;;;;;4.38;1.30;;;18.20;59.80;;;17.41;64.77;96425.13;4936400;28;20035;-64
2022/07/06 01:00:16;;;;;;;1.95;1.15;;;18.10;59.90;;;17.41;64.35;96424.31;4935749;28;20070;-64
2022/07/06 01:02:42;;;;;;;1.58;1.05;;;18.20;59.90;;;17.40;64.92;96422.69;4969935;28;20424;-65
2022/07/06 01:05:09;;;;;;;3.28;1.50;;;18.10;59.70;;;17.36;65.24;96430.31;4952060;28;20073;-64
2022/07/06 01:07:35;;;;;;;3.55;1.30;;;18.10;59.90;;;17.29;65.06;96426.13;4950899;28;20035;-64
2022/07/06 01:10:05;;;;;;;3.70;1.38;;;17.90;59.90;;;17.22;65.30;96430.72;4948457;28;20510;-64
2022/07/06 01:12:31;;;;;;;3.23;1.30;;;17.90;60.40;;;17.16;65.11;96429.72;4968535;28;20134;-64
2022/07/06 01:14:57;;;;;;;5.20;1.50;;;17.80;60.70;;;17.14;65.39;96429.94;4952530;28;20329;-64
2022/07/06 01:17:22;;;;;;;4.50;1.38;;;17.90;61.00;;;17.11;65.80;96422.41;4967914;28;20046;-64
2022/07/06 01:19:48;;;;;;;5.65;1.50;;;17.90;61.20;;;17.11;66.31;96425.09;4951289;28;20122;-65
2022/07/06 01:22:14;;;;;;;2.45;1.30;;;17.90;61.40;;;17.11;66.75;96414.44;4969090;28;20066;-64
2022/07/06 01:24:39;;;;;;;3.42;1.60;;;18.00;61.50;;;17.09;67.31;96415.72;4936161;28;20027;-64
2022/07/06 01:27:05;;;;;;;2.95;1.45;;;17.90;61.70;;;17.09;66.81;96416.53;4935579;28;20039;-65
2022/07/06 01:29:34;;;;;;;3.40;1.48;;;17.90;61.50;;;17.05;67.28;96415.34;4966061;28;20094;-64
2022/07/06 01:32:01;;;;;;;3.80;1.38;;;17.80;61.70;;;17.00;67.57;96407.22;4953174;28;20074;-64
2022/07/06 01:34:27;;;;;;;1.95;1.30;;;17.70;61.90;;;16.95;67.56;96409.72;4952213;28;20043;-64
2022/07/06 01:36:52;;;;;;;3.05;1.42;;;17.60;62.30;;;16.96;68.01;96410.53;4967042;28;20037;-64
2022/07/06 01:39:18;;;;;;;5.78;1.80;;;17.70;62.80;;;16.94;68.32;96405.44;4951818;28;20738;-64
2022/07/06 01:41:44;;;;;;;4.60;1.55;;;17.70;62.70;;;16.93;68.51;96409.13;4969323;28;20086;-65
2022/07/06 01:44:10;;;;;;;3.08;1.70;;;17.70;63.10;;;16.93;68.66;96410.97;4967343;28;20561;-64
2022/07/06 01:46:36;;;;;;;4.38;1.20;;;17.70;63.00;;;16.91;68.34;96419.16;4982681;28;20043;-64
2022/07/06 01:49:01;;;;;;;3.35;1.50;;;17.70;63.20;;;16.90;69.51;96406.91;4969171;28;20042;-64
2022/07/06 01:51:27;;;;;;;6.70;1.85;;;17.70;63.10;;;16.89;69.22;96421.22;4951872;28;20042;-64
2022/07/06 01:53:53;;;;;;;5.00;1.50;;;17.70;63.20;;;16.88;69.28;96418.81;4937368;28;20121;-64
2022/07/06 01:56:19;;;;;;;4.45;1.58;;;17.70;63.30;;;16.90;69.32;96414.88;4946723;28;20406;-65
2022/07/06 01:58:46;;;;;;;2.85;1.30;;;17.80;63.60;;;16.88;70.29;96414.28;4940302;28;20030;-64
2022/07/06 02:01:17;;;;;;;2.53;1.40;;;17.70;63.50;;;16.90;70.84;96422.84;4949729;28;20035;-64
2022/07/06 02:03:43;;;;;;;2.63;1.35;;;17.70;63.90;;;16.90;70.08;96414.88;4936668;28;20090;-64
2022/07/06 02:06:09;;;;;;;3.05;1.40;;;17.80;63.70;;;16.89;70.86;96415.09;4950399;28;20042;-64
2022/07/06 02:08:35;;;;;;;4.53;1.70;;;17.70;63.70;;;16.87;70.67;96418.00;4936506;28;20031;-64
2022/07/06 02:11:05;;;;;;;3.92;1.70;;;17.70;64.00;;;16.86;70.70;96419.03;4952690;28;20038;-64
2022/07/06 02:13:31;;;;;;;4.28;1.80;;;17.70;63.80;;;16.83;70.39;96416.81;4952572;28;20035;-64
2022/07/06 02:15:56;;;;;;;3.50;2.10;;;17.70;63.90;;;16.81;70.24;96424.19;4947678;28;20058;-64
2022/07/06 02:18:22;;;;;;;4.75;2.10;;;17.60;63.90;;;16.76;70.61;96411.56;4933815;28;20042;-64
2022/07/06 02:20:49;;;;;;;7.28;2.40;;;17.50;64.30;;;16.73;71.06;96421.81;4953261;28;20386;-64
2022/07/06 02:23:15;;;;;;;4.20;1.90;;;17.60;64.30;;;16.71;71.10;96419.38;4953689;28;20039;-64
2022/07/06 02:25:41;;;;;;;6.85;2.33;;;17.60;64.30;;;16.68;71.50;96429.63;4951648;28;20580;-65
2022/07/06 02:28:06;;;;;;;3.05;1.75;;;17.40;64.60;;;16.63;71.20;96432.09;4948901;28;20063;-64
2022/07/06 02:30:32;;;;;;;4.25;1.77;;;17.40;64.90;;;16.61;71.37;96434.16;4969667;28;20052;-65
2022/07/06 02:32:58;;;;;;;2.22;1.60;;;17.40;65.00;;;16.60;72.54;96432.53;4969632;28;20035;-65
2022/07/06 02:35:24;;;;;;;3.97;1.63;;;17.50;65.10;;;16.57;71.69;96430.31;4963422;28;20059;-65
2022/07/06 02:37:49;;;;;;;2.28;1.40;;;17.40;64.90;;;16.54;72.44;96440.34;4955475;28;20586;-64
2022/07/06 02:40:15;;;;;;;5.25;1.55;;;17.40;64.90;;;16.50;71.68;96433.81;4964597;28;20039;-65
2022/07/06 02:42:41;;;;;;;4.00;1.85;;;17.30;65.20;;;16.47;72.18;96436.09;4951861;28;20158;-65
2022/07/06 02:45:08;;;;;;;2.70;1.75;;;17.30;65.40;;;16.46;72.41;96432.63;4947840;28;20039;-64
2022/07/06 02:47:33;;;;;;;16.58;11.10;;;17.30;65.70;;;16.46;73.11;96432.63;4962948;28;20130;-65
2022/07/06 02:49:59;;;;;;;15.93;12.23;;;17.40;66.40;;;16.46;73.23;96437.94;4945960;28;20101;-70
2022/07/06 02:52:25;;;;;;;4.75;3.38;;;17.30;66.50;;;16.47;73.85;96438.75;4950896;28;20555;-66
2022/07/06 02:54:51;;;;;;;7.97;3.85;;;17.40;66.50;;;16.47;73.89;96439.56;4936046;28;20054;-65
2022/07/06 02:57:16;;;;;;;8.18;4.47;;;17.40;66.30;;;16.46;73.89;96435.28;4948071;28;20054;-65
2022/07/06 02:59:42;;;;;;;7.32;5.00;;;17.40;66.20;;;16.45;74.52;96436.31;4950593;28;20047;-65
2022/07/06 03:02:08;;;;;;;4.80;2.75;;;17.30;66.70;;;16.43;74.18;96438.38;4947767;28;20046;-66
2022/07/06 03:04:34;;;;;;;3.80;1.80;;;17.30;66.70;;;16.42;74.60;96431.44;4950247;28;20071;-66
2022/07/06 03:07:00;;;;;;;2.58;1.98;;;17.30;67.00;;;16.42;74.63;96441.25;4951632;28;20038;-65
2022/07/06 03:09:25;;;;;;;4.93;1.88;;;17.30;67.00;;;16.41;75.09;96450.25;4947377;28;20110;-65
2022/07/06 03:11:52;;;;;;;2.58;1.70;;;17.20;67.30;;;16.38;75.73;96448.84;4948595;28;20108;-65
2022/07/06 03:14:17;;;;;;;5.97;3.45;;;17.20;67.10;;;16.37;74.99;96444.56;4946428;28;20054;-65
2022/07/06 03:16:43;;;;;;;28.58;23.50;;;17.20;67.30;;;16.36;75.31;96448.25;4946057;28;20066;-65
2022/07/06 03:19:09;;;;;;;10.50;7.32;;;17.30;67.70;;;16.37;75.81;96455.19;4935192;28;20031;-65
2022/07/06 03:21:34;;;;;;;4.55;2.10;;;17.30;68.00;;;16.35;75.96;96451.94;4950369;28;20054;-66
2022/07/06 03:24:00;;;;;;;3.92;3.22;;;17.20;67.70;;;16.31;76.20;96450.75;4967317;28;20384;-65
2022/07/06 03:26:26;;;;;;;6.57;3.47;;;17.20;67.90;;;16.31;77.10;96448.09;4949338;28;20515;-65
2022/07/06 03:28:52;;;;;;;5.18;4.05;;;17.20;68.00;;;16.30;76.69;96451.78;4932017;28;20570;-65
2022/07/06 03:31:17;;;;;;;6.75;5.18;;;17.20;67.90;;;16.29;76.86;96450.13;4962570;28;20039;-65
2022/07/06 03:33:43;;;;;;;5.05;2.00;;;17.20;68.20;;;16.28;76.55;96448.50;4967804;28;20159;-65
2022/07/06 03:36:09;;;;;;;3.83;2.70;;;17.10;67.90;;;16.26;76.73;96437.28;4964326;28;20058;-65
2022/07/06 03:38:35;;;;;;;5.63;3.25;;;17.10;67.90;;;16.24;76.56;96444.66;4964548;28;20053;-65
2022/07/06 03:41:01;;;;;;;4.82;2.30;;;17.10;68.20;;;16.24;77.37;96440.16;4950032;28;20042;-66
2022/07/06 03:43:26;;;;;;;2.35;1.58;;;17.20;68.50;;;16.23;77.29;96437.72;4934146;28;20138;-65
2022/07/06 03:45:52;;;;;;;2.60;1.35;;;17.10;68.10;;;16.18;77.33;96434.91;4965686;28;20039;-65
2022/07/06 03:48:18;;;;;;;1.92;1.25;;;17.10;68.30;;;16.16;77.98;96442.28;4947110;28;20421;-65
2022/07/06 03:50:44;;;;;;;2.47;1.40;;;17.10;68.80;;;16.15;77.55;96436.16;4934250;28;20118;-65
2022/07/06 03:53:09;;;;;;;3.58;1.45;;;17.10;68.60;;;16.13;77.72;96440.06;4933338;28;20063;-71
2022/07/06 03:55:35;;;;;;;2.05;1.30;;;17.00;68.80;;;16.14;78.04;96439.03;4964061;28;20073;-64
2022/07/06 03:58:01;;;;;;;1.40;1.10;;;17.10;69.00;;;16.17;78.42;96443.91;4950664;28;20147;-64
2022/07/06 04:00:27;;;;;;;2.75;1.23;;;17.10;68.90;;;16.15;78.72;96448.63;4948070;28;20031;-64
2022/07/06 04:02:52;;;;;;;3.15;1.35;;;17.10;69.10;;;16.14;78.84;96445.16;4943337;28;20129;-64
2022/07/06 04:05:22;;;;;;;10.43;1.50;;;17.10;68.90;;;16.13;78.58;96456.00;4966003;28;20066;-64
2022/07/06 04:07:48;;;;;;;2.13;1.30;;;17.10;68.90;;;16.14;78.68;96460.28;4954547;28;20042;-64
2022/07/06 04:10:17;;;;;;;6.28;1.60;;;17.10;69.10;;;16.15;79.28;96472.50;4968760;28;20529;-64
2022/07/06 04:12:43;;;;;;;2.58;1.30;;;17.20;69.10;;;16.16;79.75;96474.13;4953373;28;20198;-63
2022/07/06 04:15:10;;;;;;;3.35;1.40;;;17.20;69.30;;;16.18;80.15;96474.72;4968107;28;20044;-63
2022/07/06 04:17:54;;;;;;;10.10;1.35;;;17.30;69.40;;;16.21;80.13;96474.28;4960377;28;20034;-63
2022/07/06 04:20:20;;;;;;;3.92;1.33;;;17.30;69.40;;;16.23;80.46;96472.25;4957358;28;20031;-64
2022/07/06 04:22:46;;;;;;;2.55;1.63;;;17.20;69.70;;;16.23;80.19;96459.78;4972621;28;20054;-64
2022/07/06 04:25:12;;;;;;;4.18;1.80;;;17.30;69.50;;;16.24;80.48;96471.22;4963263;28;20031;-63
2022/07/06 04:27:37;;;;;;;5.72;1.80;;;17.30;69.40;;;16.24;80.44;96471.22;4964666;28;20482;-63
2022/07/06 04:30:04;;;;;;;2.03;1.50;;;17.30;69.70;;;16.26;81.12;96471.81;4971979;28;20027;-63
2022/07/06 04:32:30;;;;;;;4.20;2.80;;;17.30;69.70;;;16.27;81.07;96464.66;4956191;28;20038;-64
2022/07/06 04:34:55;;;;;;;4.40;2.80;;;17.30;69.60;;;16.28;81.05;96467.09;4970294;28;20117;-63
2022/07/06 04:37:21;;;;;;;8.52;2.30;;;17.30;69.70;;;16.29;80.77;96475.88;4956142;28;20070;-63
2022/07/06 04:39:47;;;;;;;3.60;2.08;;;17.30;69.80;;;16.29;81.01;96468.72;4972065;28;20411;-64
2022/07/06 04:42:12;;;;;;;3.17;2.03;;;17.40;70.20;;;16.33;81.73;96483.22;4955531;28;20529;-63
2022/07/06 04:44:38;;;;;;;2.63;1.80;;;17.50;70.20;;;16.36;82.05;96488.09;4965615;28;20521;-64
2022/07/06 04:47:04;;;;;;;3.85;1.70;;;17.60;70.30;;;16.41;82.00;96488.25;4971593;28;20026;-64
2022/07/06 04:49:30;;;;;;;4.35;2.35;;;17.60;70.00;;;16.44;82.76;96481.69;4955564;28;20038;-64
2022/07/06 04:51:55;;;;;;;5.13;3.30;;;17.60;70.10;;;16.44;82.16;96481.69;4969485;28;20483;-68
2022/07/06 04:54:21;;;;;;;6.22;3.35;;;17.50;70.10;;;16.46;82.56;96485.75;4927904;28;20065;-63
2022/07/06 04:56:47;;;;;;;3.80;2.60;;;17.60;70.10;;;16.50;82.24;96478.97;4965480;28;20043;-63
2022/07/06 04:59:13;;;;;;;5.63;3.40;;;17.60;70.10;;;16.54;82.14;96488.16;4971468;28;20030;-64
2022/07/06 05:01:40;;;;;;;2.83;1.85;;;17.70;70.20;;;16.54;82.51;96482.84;4955971;28;20037;-64
2022/07/06 05:04:06;;;;;;;4.32;1.83;;;17.60;69.90;;;16.56;82.46;96479.97;4970082;28;20074;-64
2022/07/06 05:06:32;;;;;;;4.07;1.65;;;17.70;70.10;;;16.59;82.63;96478.72;4963970;28;20483;-64
2022/07/06 05:08:59;;;;;;;3.85;1.33;;;17.70;70.10;;;16.60;82.88;96480.34;4971826;28;20049;-64
2022/07/06 05:11:28;;;;;;;2.85;1.45;;;17.60;69.90;;;16.58;82.29;96475.25;4972374;28;20496;-64
2022/07/06 05:13:54;;;;;;;2.88;1.30;;;17.60;70.40;;;16.61;83.02;96476.66;4972053;28;20416;-64
2022/07/06 05:16:20;;;;;;;2.47;1.50;;;17.70;70.50;;;16.62;83.43;96479.09;4963139;28;20054;-64
2022/07/06 05:18:46;;;;;;;4.72;1.83;;;17.80;70.70;;;16.68;83.44;96482.75;4954957;28;20034;-64
2022/07/06 05:21:12;;;;;;;2.55;1.40;;;17.80;70.10;;;16.72;83.46;96478.63;4955280;28;20027;-64
2022/07/06 05:23:38;;;;;;;4.85;1.70;;;17.90;70.70;;;16.78;83.81;96488.41;4970666;28;20039;-64
2022/07/06 05:26:03;;;;;;;2.55;1.63;;;18.00;70.40;;;16.84;83.83;96482.19;4943590;28;20085;-64
2022/07/06 05:28:29;;;;;;;4.60;1.58;;;18.10;70.20;;;16.90;84.04;96486.63;4935256;29;20038;-64
2022/07/06 05:30:55;;;;;;;5.72;1.33;;;18.10;70.10;;;16.96;83.30;96484.94;4919132;29;20027;-63
2022/07/06 05:33:21;;;;;;;2.83;1.70;;;18.20;69.90;;;17.03;83.43;96486.50;4919692;29;20046;-64
2022/07/06 05:35:46;;;;;;;2.50;1.70;;;18.30;69.60;;;17.11;83.60;96488.06;4939271;28;20046;-64
2022/07/06 05:38:12;;;;;;;2.88;1.60;;;18.40;69.40;;;17.17;83.24;96494.34;4962687;28;20130;-63
2022/07/06 05:40:38;;;;;;;1.98;1.48;;;18.40;69.30;;;17.22;81.97;96495.31;4971020;28;20031;-64
2022/07/06 05:43:04;;;;;;;2.33;1.45;;;18.50;68.00;;;17.29;82.82;96496.06;4954097;28;20039;-64
2022/07/06 05:45:29;;;;;;;2.83;1.30;;;18.60;68.70;;;17.39;82.32;96498.19;4946888;28;20044;-64
2022/07/06 05:50:40;;;;;;;2.30;1.20;;;18.90;68.40;;;17.61;82.60;96506.53;4963521;28;20057;-64
2022/07/06 05:53:06;;;;;;;2.85;1.52;;;19.10;68.00;;;17.70;81.47;96508.72;4954595;28;20506;-64
2022/07/06 05:55:31;;;;;;;2.00;1.50;;;19.10;66.20;;;17.82;79.81;96508.75;4970917;28;20121;-63
2022/07/06 05:57:57;;;;;;;3.22;1.60;;;19.30;65.80;;;17.92;80.00;96508.22;4954131;28;20034;-64
2022/07/06 06:00:23;;;;;;;1.58;1.33;;;19.40;65.60;;;18.03;78.32;96510.13;4954676;28;20567;-64
2022/07/06 06:02:50;;;;;;;2.45;1.45;;;19.50;63.50;;;18.12;77.55;96516.78;4953672;28;20058;-64
2022/07/06 06:05:16;;;;;;;1.85;1.40;;;19.60;63.70;;;18.26;77.41;96520.84;4970442;28;20649;-64
2022/07/06 06:07:43;;;;;;;2.38;1.58;;;19.80;63.30;;;18.42;76.91;96515.94;4970379;28;20077;-64
2022/07/06 06:10:11;;;;;;;2.70;1.30;;;20.10;62.40;;;18.56;76.59;96517.34;4970076;28;20050;-64
2022/07/06 06:12:37;;;;;;;4.65;1.70;;;20.20;61.20;;;18.69;76.20;96522.50;4970667;28;20027;-63
2022/07/06 06:15:02;;;;;;;4.57;1.85;;;20.40;61.20;;;18.81;74.80;96515.34;4970479;28;20037;-64
2022/07/06 06:17:28;;;;;;;5.00;1.90;;;20.50;59.50;;;18.92;73.72;96517.19;4966576;28;20043;-64
2022/07/06 06:19:54;;;;;;;3.55;1.52;;;20.60;59.50;;;19.08;72.75;96528.22;4964890;28;20031;-63
2022/07/06 06:22:20;;;;;;;3.72;1.60;;;20.90;58.80;;;19.17;72.12;96518.81;4971156;28;20061;-63
2022/07/06 06:24:45;;;;;;;3.30;1.70;;;20.90;57.90;;;19.26;71.50;96517.44;4954272;28;20378;-63
2022/07/06 06:27:11;;;;;;;3.08;1.95;;;21.10;57.50;;;19.38;71.60;96520.88;4954074;28;20042;-62
2022/07/06 06:29:37;;;;;;;2.60;1.65;;;21.20;57.30;;;19.46;71.13;96517.03;4970187;28;20039;-63
2022/07/06 06:32:05;;;;;;;4.72;1.65;;;21.40;57.10;;;19.57;70.47;96509.06;4965801;28;20133;-63
2022/07/06 06:34:31;;;;;;;5.38;1.77;;;21.60;56.30;;;19.73;69.36;96512.03;4954472;28;20495;-63
2022/07/06 06:36:57;;;;;;;2.78;1.70;;;21.80;55.30;;;19.84;69.19;96513.84;4954183;28;20037;-63
2022/07/06 06:39:23;;;;;;;4.30;1.50;;;22.00;54.90;;;19.98;69.01;96515.22;4969596;28;20201;-65
2022/07/06 06:41:48;;;;;;;2.50;1.80;;;22.20;55.00;;;20.10;68.56;96513.28;4969839;28;20027;-63
2022/07/06 06:44:14;;;;;;;3.05;1.75;;;22.40;54.40;;;20.23;68.33;96511.38;4966436;28;20038;-63
2022/07/06 06:46:41;;;;;;;3.72;1.40;;;22.50;53.70;;;20.35;67.27;96514.78;4953873;28;20047;-63
2022/07/06 06:49:07;;;;;;;2.55;1.67;;;22.70;53.20;;;20.49;67.68;96511.63;4969329;28;20503;-63
2022/07/06 06:51:33;;;;;;;3.28;1.65;;;22.90;52.90;;;20.62;66.69;96510.50;4950346;28;20055;-63
2022/07/06 06:53:58;;;;;;;2.78;1.77;;;23.00;52.40;;;20.76;66.22;96505.63;4934050;28;20118;-64
2022/07/06 06:56:24;;;;;;;4.00;1.60;;;23.20;51.00;;;20.91;65.34;96507.75;4934555;29;20511;-63
2022/07/06 06:58:50;;;;;;;5.50;1.40;;;23.30;51.30;;;21.06;64.74;96503.44;4959010;28;20574;-63
2022/07/06 07:01:16;;;;;;;2.83;1.50;;;23.50;51.30;;;21.19;65.27;96507.63;4966666;28;20512;-64
2022/07/06 07:03:41;;;;;;;2.65;1.58;;;23.70;51.00;;;21.29;63.21;96499.78;4934292;28;20427;-63
2022/07/06 07:06:07;;;;;;;2.65;1.50;;;23.70;49.10;;;21.38;62.63;96502.84;4949763;28;20586;-64
2022/07/06 07:08:33;;;;;;;2.88;1.70;;;23.90;48.80;;;21.48;61.97;96502.16;4918114;29;20024;-63
2022/07/06 07:10:59;;;;;;;4.32;1.30;;;24.10;47.40;;;21.57;60.68;96503.38;4918686;29;20118;-63
2022/07/06 07:13:24;;;;;;;6.25;1.70;;;24.30;46.70;;;21.68;61.10;96502.41;4941728;28;20153;-64
2022/07/06 07:15:50;;;;;;;3.10;1.70;;;24.50;47.60;;;21.79;60.29;96509.53;4969378;28;20138;-63
2022/07/06 07:18:16;;;;;;;3.53;1.67;;;24.60;46.30;;;21.89;59.45;96512.31;4952707;28;20220;-64
2022/07/06 07:20:42;;;;;;;5.20;1.80;;;24.60;45.80;;;22.00;59.16;96511.38;4953858;28;20051;-63
2022/07/06 07:23:07;;;;;;;2.83;1.48;;;24.90;46.10;;;22.13;59.20;96509.41;4969290;28;20062;-64
2022/07/06 07:25:34;;;;;;;2.70;1.63;;;25.10;45.40;;;22.23;58.75;96510.31;4968701;28;20039;-64
2022/07/06 07:27:59;;;;;;;4.63;1.55;;;25.10;45.50;;;22.37;58.51;96515.25;4944754;28;20053;-63
2022/07/06 07:30:25;;;;;;;3.10;1.48;;;25.40;45.00;;;22.53;58.75;96523.19;4949933;28;20507;-64
2022/07/06 07:32:51;;;;;;;2.55;1.50;;;25.60;45.60;;;22.68;57.92;96508.31;4934212;28;20062;-63
2022/07/06 07:35:17;;;;;;;10.25;1.75;;;25.80;44.10;;;22.82;57.32;96513.00;4934273;28;20039;-64
2022/07/06 07:37:42;;;;;;;2.60;1.65;;;26.00;42.60;;;22.97;56.77;96509.66;4918152;28;20071;-63
2022/07/06 07:40:09;;;;;;;5.00;1.60;;;26.20;43.30;;;23.15;55.52;96514.63;4949246;28;20051;-63
2022/07/06 07:42:35;;;;;;;3.70;1.63;;;26.40;41.20;;;23.33;54.86;96513.38;4965402;28;20031;-64
2022/07/06 07:45:00;;;;;;;4.38;1.65;;;26.60;41.40;;;23.51;54.00;96512.13;4961439;28;20035;-63
2022/07/06 07:47:26;;;;;;;3.88;1.50;;;26.60;41.00;;;23.64;54.76;96498.25;4924323;28;20161;-63
2022/07/06 07:49:52;;;;;;;2.88;1.58;;;26.60;42.80;;;23.71;53.46;96504.19;4968910;28;20059;-63
2022/07/06 07:52:18;;;;;;;4.95;1.80;;;26.30;41.80;;;23.74;53.49;96510.91;4952686;28;20094;-63
2022/07/06 07:54:43;;;;;;;4.28;1.60;;;26.40;42.30;;;23.78;52.74;96504.78;4949875;28;20035;-63
2022/07/06 07:57:10;;;;;;;3.60;1.70;;;26.30;41.40;;;23.85;52.93;96509.09;4966231;28;20487;-64
2022/07/06 07:59:35;;;;;;;3.88;1.60;;;26.50;41.70;;;23.96;53.20;96505.38;4921759;28;20126;-63
2022/07/06 08:02:01;;;;;;;4.38;1.52;;;26.90;42.30;;;24.06;52.97;96505.41;4937055;28;20114;-64
2022/07/06 08:04:27;;;;;;;3.13;1.83;;;27.00;42.10;;;24.22;53.27;96509.75;4948414;28;20094;-64
2022/07/06 08:06:52;;;;;;;2.83;1.70;;;27.30;41.80;;;24.29;52.29;96510.34;4974023;28;20065;-64
2022/07/06 08:09:18;;;;;;;3.83;1.77;;;26.80;40.80;;;24.38;51.31;96502.53;4964775;28;20039;-64
2022/07/06 08:11:44;;;;;;;2.65;1.30;;;27.20;39.40;;;24.49;50.49;96506.06;4963900;28;20050;-64
2022/07/06 08:14:11;;;;;;;4.40;1.58;;;27.50;39.20;;;24.67;50.67;96510.94;4968996;28;20123;-64
2022/07/06 08:16:37;;;;;;;2.90;1.50;;;28.00;39.50;;;24.84;49.90;96506.06;4937653;28;20150;-64
2022/07/06 08:19:02;;;;;;;3.00;1.75;;;28.20;37.80;;;25.01;49.25;96511.22;4939425;28;20042;-64
2022/07/06 08:21:28;;;;;;;4.60;1.80;;;28.30;37.20;;;25.17;48.44;96506.63;4958783;28;20472;-64
2022/07/06 08:23:54;;;;;;;5.00;1.58;;;28.20;37.40;;;25.27;47.64;96509.28;4939239;28;20034;-64
2022/07/06 08:26:20;;;;;;;3.70;1.83;;;28.30;36.90;;;25.39;48.12;96511.72;4947721;28;20139;-64
2022/07/06 08:28:46;;;;;;;3.75;1.50;;;28.80;37.50;;;25.59;47.37;96509.78;4956128;28;20407;-64
2022/07/06 08:31:12;;;;;;;3.67;1.33;;;29.20;35.60;;;25.78;46.73;96509.97;4956123;28;20039;-63
2022/07/06 08:33:37;;;;;;;4.65;1.60;;;29.40;35.10;;;25.90;46.27;96498.91;4972403;28;20109;-64
2022/07/06 08:36:04;;;;;;;8.95;1.92;;;29.00;35.60;;;25.95;45.79;96499.66;4955712;28;20519;-64
2022/07/06 08:38:30;;;;;;;7.60;5.78;;;29.20;35.50;;;26.05;46.08;96498.84;4955523;28;20190;-64
2022/07/06 08:40:56;;;;;;;4.53;1.92;;;29.30;36.00;;;26.18;45.95;96508.19;4962846;28;20047;-63
2022/07/06 08:43:22;;;;;;;3.00;1.70;;;29.50;35.80;;;26.29;45.73;96500.84;4945811;28;20031;-63
2022/07/06 08:45:48;;;;;;;2.95;1.63;;;29.60;35.10;;;26.48;46.16;96501.81;4972184;28;20038;-63
2022/07/06 08:48:13;;;;;;;4.38;1.60;;;29.90;35.60;;;26.68;44.90;96496.28;4954727;28;20061;-63
2022/07/06 08:50:39;;;;;;;4.07;1.70;;;30.10;34.00;;;26.88;44.16;96505.31;4972007;28;20038;-63
2022/07/06 08:53:05;;;;;;;6.07;1.83;;;30.50;34.00;;;27.07;44.52;96498.16;4971016;28;20059;-63
2022/07/06 08:55:31;;;;;;;3.38;1.83;;;30.60;34.40;;;27.33;44.42;96501.41;4947899;28;20479;-63
2022/07/06 08:57:57;;;;;;;4.15;1.63;;;30.90;35.10;;;27.56;44.02;96508.72;4971852;28;20035;-65
2022/07/06 09:00:24;;;;;;;2.03;1.30;;;30.90;32.80;;;27.82;44.02;96501.16;4939548;28;20037;-64
2022/07/06 09:02:50;;;;;;;2.13;1.50;;;31.30;34.10;;;28.13;43.18;96498.06;4956127;28;20035;-63
2022/07/06 09:05:16;;;;;;;3.30;1.40;;;31.60;32.90;;;28.29;42.24;96502.19;4971777;28;20101;-63
2022/07/06 09:07:43;;;;;;;3.00;1.48;;;31.40;32.50;;;28.50;40.96;96506.22;4954833;28;20446;-63
2022/07/06 09:10:09;;;;;;;4.30;1.30;;;31.50;31.70;;;28.64;40.58;96503.56;4967635;28;20090;-63
2022/07/06 09:12:35;;;;;;;4.60;1.77;;;31.40;32.00;;;28.71;40.19;96503.19;4952307;28;20131;-63
2022/07/06 09:15:00;;;;;;;3.20;1.40;;;31.30;31.80;;;28.85;39.76;96512.19;4952222;28;20042;-63
2022/07/06 09:17:27;;;;;;;5.53;1.70;;;31.60;31.50;;;28.96;38.62;96503.63;4935802;29;20043;-63
2022/07/06 09:19:54;;;;;;;3.40;1.42;;;31.50;30.90;;;28.95;38.63;96504.72;4952232;28;20147;-64
2022/07/06 09:22:31;;;;;;;3.47;1.48;;;31.20;31.50;;;28.99;36.04;96509.56;4956721;28;20454;-63
2022/07/06 09:25:11;;;;;;;6.40;2.97;;;31.40;30.60;;;29.15;37.03;96503.56;4950514;28;20042;-63
2022/07/06 09:27:47;;;;;;;4.13;1.77;;;32.00;31.20;;;29.32;37.33;96497.59;4971089;28;20576;-63
2022/07/06 09:30:14;;;;;;;5.68;2.25;;;32.00;31.80;;;29.52;38.22;96499.94;4970598;28;20042;-64
2022/07/06 09:32:45;;;;;;;5.00;1.80;;;32.50;31.40;;;29.81;36.58;96505.06;4971079;28;20035;-63
2022/07/06 09:35:28;;;;;;;5.82;1.70;;;32.70;30.00;;;29.95;35.38;96504.28;4970955;28;20538;-63
2022/07/06 09:38:14;;;;;;;3.53;1.55;;;32.70;29.50;;;29.97;34.67;96505.56;4951705;28;20042;-63
2022/07/06 09:40:44;;;;;;;4.72;1.38;;;32.50;29.00;;;30.10;34.99;96512.94;4936713;28;20034;-64
2022/07/06 09:43:19;;;;;;;3.78;1.52;;;32.80;29.30;;;30.28;35.52;96497.59;4935682;28;20035;-63
2022/07/06 09:45:50;;;;;;;3.88;1.75;;;33.30;29.50;;;30.46;35.84;96512.13;4968014;28;20056;-64
2022/07/06 09:48:18;;;;;;;4.60;1.60;;;33.30;29.30;;;30.51;35.44;96512.00;4963479;28;20031;-64
2022/07/06 09:51:06;;;;;;;7.35;1.45;;;33.20;28.50;;;30.58;33.22;96500.75;4934993;28;20352;-64
2022/07/06 09:53:34;;;;;;;4.85;1.63;;;33.40;28.30;;;30.65;35.97;96501.16;4970602;28;20059;-64
2022/07/06 09:56:01;;;;;;;4.80;1.40;;;33.60;30.00;;;30.91;35.35;96509.47;4954536;28;20050;-64
2022/07/06 09:58:27;;;;;;;1.90;1.20;;;34.10;29.10;;;31.13;34.93;96505.94;4970514;28;20039;-64
2022/07/06 10:00:53;;;;;;;2.17;1.30;;;34.50;28.00;;;31.28;35.36;96513.75;4953941;28;20037;-64
2022/07/06 10:03:19;;;;;;;4.90;1.55;;;34.90;27.80;;;31.44;35.06;96512.22;4949151;28;20057;-64
2022/07/06 10:05:47;;;;;;;4.45;1.30;;;34.80;27.30;;;31.65;34.75;96510.53;4972148;28;20030;-64
2022/07/06 10:08:14;;;;;;;3.70;1.38;;;35.40;26.40;;;31.96;34.62;96501.56;4969713;28;20059;-64
2022/07/06 10:10:40;;;;;;;2.97;1.40;;;35.90;27.10;;;32.33;34.44;96504.84;4938796;28;20030;-64
2022/07/06 10:13:07;;;;;;;3.30;1.50;;;36.30;24.90;;;32.70;34.33;96498.00;4970464;28;20466;-64
2022/07/06 10:15:34;;;;;;;3.92;1.33;;;36.70;25.80;;;33.05;33.29;96501.53;4970780;28;20113;-64
2022/07/06 10:18:01;;;;;;;3.22;1.85;;;36.80;24.00;;;33.27;31.92;96495.84;4960161;28;20039;-64